Tribune, KS (67879)

2:05 PM MDT on July 10, 2014 (GMT -0600)
Tribune (KKSTRIBU2) Elev 3600 ft | 38.47 °N, 101.75 °W | Change Station

Current weather conditions updated 4 minutes ago

Clear
Clear
98.0 °F
Feels Like 97 °F
N
5.0
Wind Variable Wind from South
Gusts 5.0 mph

Today is forecast to be Warmer than yesterday.

Today
High -- | Low -- °F
--% Chance of Precip.
Yesterday
High -- | Low -- °F
Precip. -- in
5:31 AM 8:12 PM
Waxing Gibbous, 96% visible
Pressure 29.71 in
Visibility 10.0 miles
Clouds Clear
Heat Index 97 °F
Dew Point 56 °F
Humidity 25%
Rainfall 0.00 in
Snow Depth Not available.
UV 12 out of 12
Pollen 5.80 out of 12
Air Quality Not available.
Flu Activity No Activity
METAR KLAA 101953Z AUTO 17011G15KT 10SM CLR 38/07 A2989 RMK AO2 SLP059 T03830067

More Conditions Fewer Conditions

Pressure 29.71 in
Visibility 10.0 miles
Clouds Clear
Heat Index 97 °F
Dew Point 56 °F
Humidity 25%
Rainfall 0.00 in
Snow Depth Not available.
UV 12 out of 12
Pollen 5.80 out of 12
Air Quality Not available.
Flu Activity No Activity
METAR KLAA 101953Z AUTO 17011G15KT 10SM CLR 38/07 A2989 RMK AO2 SLP059 T03830067

More Conditions Fewer Conditions

10-Day Weather Forecast

Almanac

Astronomy

Jul. 10, 2014 Rise Set
Actual Time 5:31 AM MDT 8:12 PM MDT
Civil Twilight 5:00 AM MDT 8:43 PM MDT
Nautical Twilight 4:21 AM MDT 9:22 PM MDT
Astronomical Twilight 3:37 AM MDT 10:06 PM MDT
Moon 6:28 PM MDT 3:44 AM MDT
Length of Visible Light 15h 43m
Length of Day
14h 40m
Tomorrow will be 1m 4s shorter.
Waxing Gibbous, 96% of the Moon is Illuminated
Today
Waxing Gibbous
Jul 12
Full
Jul 18
Last Quarter
Jul 26
New
Aug 3
First Quarter

Today's Extremes

State Highs State Lows

Community

WunderPhotos

Upload Photos

1,732,250 photos uploaded!

Nearby

Snow Depth

Station Depth Elevation
No new snow has been reported.

Earthquake Activity

City Distance Mag. Time & Date
No recent earthquake activity has been reported nearby.
Minimum magnitude displayed is 2.5.

Coastal Water Temperatures

Place Temperature
No Stations Reporting

Nearby Weather Stations

Station Location Temp. Heat Index Dew Point Humidity Wind Precip. Elev Updated Type
Tribune, Tribune, KS 98.0 °F 97 °F 56 °F 25% South  at  5.0 mph 0.00 in / hr 3600 ft 2:00 PM MDT Normal
5E of Tribune, Tribune, KS 96.0 °F 95 °F 58 °F 28% SSE  at  17.0 mph 0.00 in / hr 3530 ft 2:00 PM MDT Normal
8NNE of Tribune, Tribune, KS 94.2 °F 94 °F 59 °F 31% SSE  at  15.0 mph 0.00 in / hr 3609 ft 1:50 PM MDT Normal
AERO B RANCH, Wallace, KS 90.9 °F 92 °F 64 °F 41% South  at  13.0 mph 0.00 in / hr 3430 ft 3:05 PM CDT Rapid Fire
Poe, Wallace, KS 91.9 °F 94 °F 65 °F 41% SE  at  10.0 mph 0.00 in / hr 3435 ft 3:04 PM CDT Rapid Fire

Show More Stations Show Fewer Stations